Time;durP1;ratioP1;P1;durP2;ratioP2;P2;SDS_P1;SDS_P2;PMS_P1;PMS_P2;Temp;Humidity;BMP_temperature;BMP_pressure;BME280_temperature;BME280_humidity;BME280_pressure;Samples;Min_cycle;Max_cycle;Signal;HPM_P1;HPM_P2
2022/04/28 00:01:47;;;;;;;0.30;0.30;;;9.10;99.90;8.70;102671.00;;;;5094226;28;20181;-68
2022/04/28 00:04:13;;;;;;;0.77;0.77;;;9.10;99.90;8.70;102681.00;;;;5094661;28;20191;-68
2022/04/28 00:06:39;;;;;;;0.40;0.40;;;9.20;99.90;8.20;102679.00;;;;5094800;28;20181;-68
2022/04/28 00:09:06;;;;;;;0.30;0.30;;;9.00;99.90;8.10;102676.00;;;;5093512;28;20640;-68
2022/04/28 00:11:33;;;;;;;0.40;0.40;;;8.90;99.90;8.20;102626.00;;;;5077830;28;20200;-68
2022/04/28 00:13:59;;;;;;;1.13;1.13;;;8.80;99.90;8.10;102669.00;;;;5094441;28;20173;-68
2022/04/28 00:16:27;;;;;;;0.47;0.47;;;8.80;99.90;8.10;102630.00;;;;5093281;28;20632;-68
2022/04/28 00:18:53;;;;;;;1.23;1.23;;;8.80;99.90;7.90;102618.00;;;;5077176;28;20927;-68
2022/04/28 00:21:20;;;;;;;0.30;0.30;;;8.70;99.90;8.30;102670.00;;;;5093320;28;20315;-68
2022/04/28 00:23:46;;;;;;;0.30;0.30;;;8.70;99.90;8.30;102677.00;;;;5077203;28;20563;-68
2022/04/28 00:26:12;;;;;;;0.40;0.40;;;8.80;99.90;7.90;102670.00;;;;5093327;28;20177;-68
2022/04/28 00:28:39;;;;;;;0.73;0.67;;;8.70;99.90;7.80;102660.00;;;;5094900;28;20180;-68
2022/04/28 00:31:05;;;;;;;0.40;0.40;;;8.70;99.90;7.80;102663.00;;;;5113170;28;20180;-68
2022/04/28 00:33:31;;;;;;;1.60;1.60;;;8.60;99.90;7.80;102672.00;;;;5097401;28;20184;-68
2022/04/28 00:35:57;;;;;;;1.10;0.77;;;8.60;99.90;7.90;102658.00;;;;5112950;28;20522;-68
2022/04/28 00:38:26;;;;;;;0.40;0.40;;;8.60;99.90;7.90;102670.00;;;;5097770;28;20199;-68
2022/04/28 00:40:52;;;;;;;0.30;0.30;;;8.60;99.90;8.00;102647.00;;;;5097714;28;20185;-68
2022/04/28 00:43:28;;;;;;;1.20;1.00;;;8.70;99.90;7.80;102660.00;;;;5096855;28;20563;-68
2022/04/28 00:45:55;;;;;;;0.53;0.47;;;8.60;99.90;8.00;102654.00;;;;5112144;28;20179;-68
2022/04/28 00:51:08;;;;;;;0.40;0.40;;;8.70;99.90;7.60;102665.00;;;;5113931;28;20238;-68
2022/04/28 00:53:49;;;;;;;0.50;0.50;;;8.60;99.90;7.70;102612.00;;;;5095409;28;20172;-68
2022/04/28 00:56:16;;;;;;;6.27;1.83;;;8.50;99.90;7.60;102643.00;;;;5095748;28;20631;-68
2022/04/28 00:58:42;;;;;;;0.60;0.60;;;8.40;99.90;7.60;102599.00;;;;5113821;28;20190;-68
2022/04/28 01:01:08;;;;;;;0.30;0.30;;;8.40;99.90;7.60;102649.00;;;;5113947;28;20514;-68
2022/04/28 01:03:34;;;;;;;0.47;0.47;;;8.30;99.90;7.80;102650.00;;;;5113684;28;20245;-68
2022/04/28 01:06:04;;;;;;;2.00;1.90;;;8.40;99.90;7.60;102619.00;;;;5095613;28;20551;-68
2022/04/28 01:08:33;;;;;;;0.40;0.40;;;8.40;99.90;7.80;102660.00;;;;5113489;28;20186;-68
2022/04/28 01:10:59;;;;;;;0.87;0.87;;;8.50;99.90;7.70;102647.00;;;;5113435;28;20184;-68
2022/04/28 01:13:25;;;;;;;0.30;0.30;;;8.40;99.90;7.90;102649.00;;;;5112032;28;20198;-68
2022/04/28 01:15:51;;;;;;;0.50;0.50;;;8.50;99.90;7.60;102653.00;;;;5114059;28;20176;-68
2022/04/28 01:18:18;;;;;;;0.70;0.70;;;8.50;99.90;7.60;102657.00;;;;5096324;28;20179;-68
2022/04/28 01:20:44;;;;;;;0.50;0.50;;;8.40;99.90;7.70;102608.00;;;;5114971;27;20184;-68
2022/04/28 01:23:11;;;;;;;1.63;0.90;;;8.40;99.90;7.60;102661.00;;;;5094638;28;20645;-68
2022/04/28 01:25:37;;;;;;;0.77;0.77;;;8.40;99.90;7.60;102645.00;;;;5113615;28;20597;-68
2022/04/28 01:28:04;;;;;;;0.67;0.67;;;8.40;99.90;7.60;102606.00;;;;5096083;28;20646;-68
2022/04/28 01:30:30;;;;;;;0.50;0.50;;;8.40;99.90;7.60;102663.00;;;;5113017;28;20179;-68
2022/04/28 01:32:57;;;;;;;0.90;0.90;;;8.30;99.90;7.40;102655.00;;;;5096012;28;20218;-68
2022/04/28 01:35:27;;;;;;;0.30;0.30;;;8.30;99.90;7.40;102630.00;;;;5112828;28;20182;-68
2022/04/28 01:37:53;;;;;;;0.90;0.90;;;8.20;99.90;7.40;102662.00;;;;5095521;28;20607;-68
2022/04/28 01:40:20;;;;;;;0.50;0.50;;;8.20;99.90;7.40;102659.00;;;;5095512;28;20273;-68
2022/04/28 01:42:53;;;;;;;0.40;0.40;;;8.20;99.90;7.70;102641.00;;;;5113003;28;20175;-68
2022/04/28 01:45:19;;;;;;;0.30;0.30;;;8.30;99.90;7.80;102662.00;;;;5112293;28;20167;-68
2022/04/28 01:47:45;;;;;;;0.70;0.70;;;8.30;99.90;7.40;102660.00;;;;5095572;28;20521;-68
2022/04/28 01:50:12;;;;;;;0.50;0.50;;;8.30;99.90;7.40;102641.00;;;;5112312;28;20203;-68
2022/04/28 01:55:25;;;;;;;0.80;0.80;;;8.30;99.90;7.60;102667.00;;;;5111229;28;20181;-68
2022/04/28 01:57:52;;;;;;;0.50;0.50;;;8.30;99.90;7.60;102663.00;;;;5112534;28;20189;-68
2022/04/28 02:00:21;;;;;;;0.40;0.40;;;8.30;99.90;7.60;102660.00;;;;5111435;28;20217;-68
2022/04/28 02:02:47;;;;;;;0.40;0.40;;;8.30;99.90;7.50;102671.00;;;;5112655;28;20187;-68
2022/04/28 02:05:13;;;;;;;0.60;0.60;;;8.30;99.90;7.70;102663.00;;;;5112258;28;20184;-68
2022/04/28 02:07:42;;;;;;;0.40;0.40;;;8.30;99.90;7.40;102653.00;;;;5112573;28;20183;-68
2022/04/28 02:10:08;;;;;;;0.40;0.40;;;8.20;99.90;7.70;102657.00;;;;5113204;28;20176;-68
2022/04/28 02:12:34;;;;;;;0.50;0.50;;;8.20;99.90;7.50;102661.00;;;;5112473;28;20206;-69
2022/04/28 02:15:00;;;;;;;0.50;0.50;;;8.20;99.90;8.00;102671.00;;;;5095607;28;20229;-69
2022/04/28 02:17:28;;;;;;;0.70;0.70;;;8.40;99.90;7.70;102652.00;;;;5096239;28;20184;-68
2022/04/28 02:19:55;;;;;;;0.40;0.40;;;8.30;99.90;7.60;102650.00;;;;5095016;28;20184;-69
2022/04/28 02:22:21;;;;;;;0.40;0.40;;;8.30;99.90;7.80;102624.00;;;;5111731;28;20184;-69
2022/04/28 02:24:47;;;;;;;1.03;1.03;;;8.40;99.90;8.20;102669.00;;;;5093817;28;20178;-68
2022/04/28 02:27:13;;;;;;;0.40;0.40;;;8.50;99.90;7.90;102651.00;;;;5094760;28;20586;-68
2022/04/28 02:29:40;;;;;;;0.60;0.60;;;8.40;99.90;7.50;102657.00;;;;5091539;28;20199;-68
2022/04/28 02:32:06;;;;;;;0.50;0.50;;;8.30;99.90;7.60;102663.00;;;;5075022;28;20212;-68
2022/04/28 02:34:34;;;;;;;0.40;0.40;;;8.20;99.90;7.40;102660.00;;;;5075111;28;20587;-68
2022/04/28 02:37:01;;;;;;;0.40;0.40;;;8.10;99.90;7.10;102655.00;;;;5109345;28;20511;-68
2022/04/28 02:39:27;;;;;;;0.40;0.40;;;8.00;99.90;7.30;102648.00;;;;5090722;28;20205;-68
2022/04/28 02:41:53;;;;;;;0.80;0.80;;;7.90;99.90;7.40;102646.00;;;;5091955;28;20529;-68
2022/04/28 02:44:19;;;;;;;4.40;1.23;;;8.00;99.90;7.20;102652.00;;;;5073577;28;20176;-68
2022/04/28 02:46:48;;;;;;;0.40;0.40;;;8.00;99.90;7.30;102597.00;;;;5074962;28;20183;-68
2022/04/28 02:49:15;;;;;;;0.37;0.37;;;8.00;99.90;7.30;102633.00;;;;5092991;28;20178;-67
2022/04/28 02:51:41;;;;;;;0.60;0.60;;;7.90;99.90;7.50;102639.00;;;;5091167;28;20282;-68
2022/04/28 02:54:08;;;;;;;0.40;0.40;;;8.00;99.90;7.40;102642.00;;;;5090714;28;20226;-67
2022/04/28 02:56:35;;;;;;;0.50;0.50;;;8.00;99.90;7.20;102644.00;;;;5090902;28;20180;-68
2022/04/28 02:59:01;;;;;;;1.73;0.80;;;7.90;99.90;6.90;102639.00;;;;5092715;28;20175;-68
2022/04/28 03:01:27;;;;;;;0.50;0.50;;;7.80;99.90;7.00;102647.00;;;;5109096;28;20198;-68
2022/04/28 03:03:54;;;;;;;0.70;0.70;;;7.70;99.90;6.70;102638.00;;;;5112098;28;20210;-68
2022/04/28 03:11:53;;;;;;;1.43;1.33;;;7.50;99.90;7.00;102653.00;;;;5112212;28;20285;-68
2022/04/28 03:14:20;;;;;;;0.30;0.30;;;7.70;99.90;6.90;102644.00;;;;5093825;28;20543;-68
2022/04/28 03:16:46;;;;;;;0.30;0.30;;;7.60;99.90;7.00;102630.00;;;;5112053;28;20591;-68
2022/04/28 03:19:12;;;;;;;1.47;1.40;;;7.70;99.90;6.80;102584.00;;;;5113501;28;20264;-68
2022/04/28 03:21:38;;;;;;;0.40;0.40;;;7.70;99.90;7.20;102632.00;;;;5115872;28;20269;-68
2022/04/28 03:24:04;;;;;;;0.70;0.70;;;7.70;99.90;7.00;102585.00;;;;5098927;28;20288;-68
2022/04/28 03:26:31;;;;;;;0.50;0.50;;;7.70;99.90;7.20;102585.00;;;;5115305;28;20177;-68
2022/04/28 03:28:57;;;;;;;0.60;0.60;;;7.70;99.90;7.40;102640.00;;;;5116761;28;20811;-67
2022/04/28 03:31:24;;;;;;;0.50;0.50;;;7.90;99.90;7.40;102651.00;;;;5098053;28;20231;-68
2022/04/28 03:33:52;;;;;;;0.83;0.83;;;7.80;99.90;7.10;102651.00;;;;5098932;28;20182;-68
2022/04/28 03:39:04;;;;;;;0.63;0.63;;;7.80;99.90;7.00;102604.00;;;;5114440;28;20195;-68
2022/04/28 03:41:30;;;;;;;0.30;0.30;;;7.70;99.90;7.10;102648.00;;;;5115454;28;20177;-67
2022/04/28 03:43:56;;;;;;;0.87;0.50;;;7.80;99.90;7.20;102625.00;;;;5115415;28;20236;-67
2022/04/28 03:46:23;;;;;;;0.40;0.40;;;7.80;99.90;7.10;102625.00;;;;5097763;28;20648;-68
2022/04/28 03:48:49;;;;;;;0.37;0.37;;;7.90;99.90;6.90;102634.00;;;;5116385;28;20170;-67
2022/04/28 03:51:15;;;;;;;0.30;0.30;;;7.80;99.90;6.80;102584.00;;;;5114339;28;20232;-67
2022/04/28 03:53:42;;;;;;;1.90;1.30;;;7.70;99.90;7.10;102634.00;;;;5097932;28;20221;-67
2022/04/28 03:56:08;;;;;;;0.40;0.40;;;7.60;99.90;6.90;102633.00;;;;5114918;28;20581;-67
2022/04/28 03:58:34;;;;;;;0.30;0.30;;;7.60;99.90;6.90;102593.00;;;;5098423;28;20188;-67
2022/04/28 04:01:00;;;;;;;0.33;0.33;;;7.60;99.90;6.90;102641.00;;;;5087058;28;20617;-68
2022/04/28 04:03:26;;;;;;;0.43;0.43;;;7.60;99.90;6.80;102641.00;;;;5094335;28;20182;-67
2022/04/28 04:05:52;;;;;;;0.40;0.40;;;7.50;99.90;6.30;102639.00;;;;5076705;28;20541;-67
2022/04/28 04:08:18;;;;;;;0.30;0.30;;;7.30;99.90;6.50;102642.00;;;;5094536;28;20254;-68
2022/04/28 04:10:44;;;;;;;0.37;0.37;;;7.30;99.90;7.10;102640.00;;;;5077355;28;20219;-67
2022/04/28 04:13:10;;;;;;;0.40;0.40;;;7.40;99.90;7.10;102649.00;;;;5077751;28;20688;-67
2022/04/28 04:15:36;;;;;;;0.40;0.40;;;7.50;99.90;6.80;102644.00;;;;5094634;28;20229;-67
2022/04/28 04:18:03;;;;;;;0.40;0.40;;;7.50;99.90;7.10;102650.00;;;;5077051;28;20188;-66
2022/04/28 04:20:29;;;;;;;0.40;0.40;;;7.50;99.90;6.90;102657.00;;;;5093305;28;20697;-67
2022/04/28 04:22:59;;;;;;;0.40;0.40;;;7.50;99.90;7.10;102650.00;;;;5101358;28;20270;-67
2022/04/28 04:25:25;;;;;;;0.40;0.40;;;7.50;99.90;6.90;102649.00;;;;5105391;28;20194;-67
2022/04/28 04:27:51;;;;;;;0.40;0.40;;;7.40;99.90;7.10;102611.00;;;;5097652;28;20632;-67
2022/04/28 04:33:01;;;;;;;0.40;0.40;;;7.60;99.90;7.40;102663.00;;;;5114526;28;20227;-67
2022/04/28 04:35:27;;;;;;;0.40;0.40;;;7.60;99.90;7.30;102651.00;;;;5114715;28;20181;-67
2022/04/28 04:37:54;;;;;;;0.40;0.40;;;7.60;99.90;7.50;102674.00;;;;5113942;28;20179;-68
2022/04/28 04:40:20;;;;;;;0.50;0.50;;;7.80;99.90;7.60;102657.00;;;;5114881;28;20604;-68
2022/04/28 04:42:47;;;;;;;0.60;0.60;;;7.90;99.90;7.40;102660.00;;;;5113956;28;20205;-67
2022/04/28 04:45:12;;;;;;;0.40;0.40;;;8.00;99.90;7.30;102661.00;;;;5097293;28;20207;-68
2022/04/28 04:47:39;;;;;;;0.50;0.50;;;7.80;99.90;6.60;102632.00;;;;5113287;28;20607;-68
2022/04/28 04:50:07;;;;;;;0.60;0.60;;;7.60;99.90;6.50;102671.00;;;;5097105;28;20586;-68
2022/04/28 04:52:35;;;;;;;0.50;0.50;;;7.30;99.90;6.70;102674.00;;;;5095871;28;20265;-67
2022/04/28 04:55:02;;;;;;;0.43;0.43;;;7.30;99.90;7.40;102680.00;;;;5097270;28;20273;-67
2022/04/28 04:57:31;;;;;;;2.30;1.40;;;7.50;99.90;7.20;102666.00;;;;5113850;28;20173;-68
2022/04/28 04:59:58;;;;;;;0.40;0.40;;;7.70;99.90;7.00;102670.00;;;;5114939;28;20585;-68
2022/04/28 05:02:24;;;;;;;0.50;0.50;;;7.60;99.90;7.20;102665.00;;;;5076420;28;20218;-68
2022/04/28 05:04:50;;;;;;;0.73;0.73;;;7.70;99.90;7.60;102670.00;;;;5076595;28;20182;-68
2022/04/28 05:07:17;;;;;;;0.80;0.80;;;7.90;99.90;8.30;102680.00;;;;5092539;28;20179;-67
2022/04/28 05:09:43;;;;;;;0.40;0.40;;;8.40;99.90;8.80;102676.00;;;;5076777;28;20186;-66
2022/04/28 05:12:09;;;;;;;0.20;0.20;;;8.90;99.90;8.70;102690.00;;;;5093563;28;20252;-67
2022/04/28 05:14:35;;;;;;;0.30;0.30;;;9.20;99.90;9.20;102655.00;;;;5093876;28;20227;-66
2022/04/28 05:17:02;;;;;;;0.50;0.50;;;9.50;99.90;9.40;102692.00;;;;5093125;28;20597;-67
2022/04/28 05:19:28;;;;;;;0.30;0.30;;;9.80;99.90;8.70;102697.00;;;;5092974;28;20186;-66
2022/04/28 05:21:57;;;;;;;0.40;0.40;;;9.60;99.90;8.40;102703.00;;;;5093328;28;20563;-67
2022/04/28 05:24:23;;;;;;;0.20;0.20;;;9.50;99.90;8.80;102691.00;;;;5076777;28;20234;-66
2022/04/28 05:26:49;;;;;;;0.20;0.20;;;9.60;99.90;10.10;102711.00;;;;5075179;28;20646;-66
2022/04/28 05:29:15;;;;;;;0.23;0.23;;;10.20;99.90;8.70;102663.00;;;;5092833;28;20175;-65
2022/04/28 05:31:40;;;;;;;1.43;1.33;;;9.80;99.90;8.90;102714.00;;;;5104098;28;20294;-66
2022/04/28 05:34:06;;;;;;;9.87;1.43;;;9.80;99.90;8.40;102666.00;;;;5113798;28;20188;-66
2022/04/28 05:36:33;;;;;;;2.93;1.53;;;9.60;99.90;9.40;102724.00;;;;5095899;28;20198;-67
2022/04/28 05:38:59;;;;;;;0.33;0.33;;;9.80;99.90;9.70;102731.00;;;;5115035;28;20174;-66
2022/04/28 05:41:26;;;;;;;3.23;1.37;;;10.10;99.90;8.70;102728.00;;;;5077781;28;20200;-67
2022/04/28 05:46:47;;;;;;;0.43;0.43;;;9.70;99.90;9.00;102702.00;;;;5113242;28;20185;-68
2022/04/28 05:49:13;;;;;;;2.63;1.80;;;9.70;99.90;9.40;102735.00;;;;5103238;28;20201;-68
2022/04/28 05:51:42;;;;;;;1.00;1.00;;;10.10;99.90;9.20;102704.00;;;;5075965;28;20291;-67
2022/04/28 05:54:16;;;;;;;15.97;2.43;;;10.10;99.90;10.00;102759.00;;;;5093914;28;20170;-67
2022/04/28 05:56:42;;;;;;;0.50;0.50;;;10.70;99.90;10.90;102761.00;;;;5103090;28;20181;-67
2022/04/28 05:59:11;;;;;;;0.10;0.10;;;11.10;99.90;10.80;102766.00;;;;5112671;28;20179;-67
2022/04/28 06:01:44;;;;;;;0.10;0.10;;;11.10;99.90;10.50;102772.00;;;;5114080;28;20187;-67
2022/04/28 06:04:10;;;;;;;1.57;1.47;;;11.00;99.90;10.40;102729.00;;;;5095793;28;20177;-67
2022/04/28 06:06:39;;;;;;;2.20;2.00;;;11.00;99.90;10.50;102777.00;;;;5096067;28;20505;-67
2022/04/28 06:09:05;;;;;;;1.50;1.13;;;11.10;99.90;11.50;102787.00;;;;5112896;28;20264;-68
2022/04/28 06:11:31;;;;;;;0.23;0.23;;;11.70;99.90;12.00;102771.00;;;;5113045;28;20529;-68
2022/04/28 06:13:57;;;;;;;1.90;0.97;;;12.30;99.90;13.80;102850.00;;;;5114254;28;20170;-67
2022/04/28 06:16:23;;;;;;;0.40;0.40;;;13.20;99.90;13.90;102871.00;;;;5112610;28;20195;-67
2022/04/28 06:18:49;;;;;;;5.97;2.30;;;13.50;99.90;10.90;102810.00;;;;5112338;28;20179;-67
2022/04/28 06:21:15;;;;;;;6.07;0.73;;;12.40;99.90;11.60;102852.00;;;;5095570;28;20178;-67
2022/04/28 06:23:45;;;;;;;2.30;2.20;;;12.30;99.90;12.50;102857.00;;;;5112557;28;20182;-68
2022/04/28 06:26:11;;;;;;;0.20;0.20;;;12.80;99.90;12.60;102832.00;;;;5112874;28;20296;-68
2022/04/28 06:28:39;;;;;;;0.73;0.73;;;12.80;99.90;13.20;102887.00;;;;5112955;28;20183;-68
2022/04/28 06:31:06;;;;;;;0.23;0.23;;;13.30;99.90;12.40;102854.00;;;;5091428;28;20279;-68
2022/04/28 06:33:32;;;;;;;4.13;1.70;;;13.10;99.90;11.20;102865.00;;;;5091683;28;20196;-67
2022/04/28 06:35:58;;;;;;;0.10;0.10;;;12.40;99.90;11.90;102871.00;;;;5075161;28;20193;-68
2022/04/28 06:38:24;;;;;;;0.40;0.40;;;12.40;99.90;13.20;102888.00;;;;5099858;28;20581;-68
2022/04/28 06:40:51;;;;;;;1.53;0.83;;;12.80;99.90;13.10;102872.00;;;;5110236;28;20536;-68
2022/04/28 06:43:18;;;;;;;1.13;0.97;;;13.50;99.90;12.70;102916.00;;;;5092247;28;20198;-68
2022/04/28 06:46:12;;;;;;;1.13;1.07;;;13.60;99.90;15.30;102944.00;;;;5102690;28;20171;-68
2022/04/28 06:48:30;;;;;;;2.17;1.63;;;14.70;99.90;14.10;102970.00;;;;5104412;28;20654;-68
2022/04/28 06:50:56;;;;;;;0.33;0.33;;;14.90;99.90;12.30;102932.00;;;;5086421;28;20226;-68
2022/04/28 06:53:22;;;;;;;3.03;1.43;;;13.40;99.90;11.80;102932.00;;;;5105180;28;20719;-68
2022/04/28 06:55:48;;;;;;;0.60;0.57;;;12.70;99.90;13.90;102952.00;;;;5118126;28;20178;-68
2022/04/28 06:58:15;;;;;;;0.30;0.30;;;13.40;99.90;16.30;102945.00;;;;5116434;28;20191;-69
2022/04/28 07:00:41;;;;;;;0.17;0.17;;;15.10;99.90;15.60;103007.00;;;;5114858;28;20189;-69
2022/04/28 07:03:07;;;;;;;0.10;0.10;;;15.80;99.90;17.10;102978.00;;;;5102457;28;20192;-69
2022/04/28 07:05:33;;;;;;;0.85;0.85;;;16.30;99.90;14.70;103022.00;;;;5116079;28;20193;-69
2022/04/28 07:08:00;;;;;;;11.03;1.40;;;16.00;99.90;14.10;103009.00;;;;5115961;28;20187;-69
2022/04/28 07:10:37;;;;;;;5.53;1.47;;;15.20;99.90;13.50;103000.00;;;;5098489;28;20180;-69
2022/04/28 07:13:15;;;;;;;0.83;0.73;;;14.50;99.90;13.60;102996.00;;;;5116356;28;20566;-69
2022/04/28 07:15:41;;;;;;;1.23;0.77;;;13.80;99.90;14.10;102972.00;;;;5115744;28;20744;-68
2022/04/28 07:18:07;;;;;;;1.27;1.17;;;14.00;99.90;14.10;103006.00;;;;5115454;28;20854;-68
2022/04/28 07:20:38;;;;;;;4.03;2.20;;;14.20;99.90;14.00;103007.00;;;;5115721;28;20659;-68
2022/04/28 07:23:06;;;;;;;2.37;0.70;;;14.50;99.90;13.40;102989.00;;;;5110986;28;20190;-69
2022/04/28 07:25:35;;;;;;;0.17;0.17;;;14.00;99.90;15.30;103010.00;;;;5101195;28;20617;-69
2022/04/28 07:28:04;;;;;;;1.30;1.20;;;14.80;99.90;14.00;103016.00;;;;5100481;28;20185;-69
2022/04/28 07:30:42;;;;;;;0.20;0.20;;;14.70;99.90;15.50;103034.00;;;;5099448;28;20270;-69
2022/04/28 07:33:11;;;;;;;1.03;0.70;;;15.40;99.90;15.40;103025.00;;;;5094798;28;20801;-69
2022/04/28 07:35:40;;;;;;;1.13;1.03;;;15.70;99.90;13.30;103022.00;;;;5106223;28;20192;-69
2022/04/28 07:38:08;;;;;;;1.70;1.27;;;14.20;99.90;13.50;103012.00;;;;5115631;28;20200;-72
2022/04/28 07:40:37;;;;;;;1.90;1.70;;;14.20;99.90;13.90;102981.00;;;;5115523;28;20221;-72
2022/04/28 07:43:09;;;;;;;0.10;0.10;;;14.30;99.90;15.90;103039.00;;;;5115547;28;20185;-71
2022/04/28 07:45:39;;;;;;;0.53;0.53;;;15.40;99.90;17.40;103065.00;;;;5098294;28;20702;-72
2022/04/28 07:48:08;;;;;;;0.20;0.20;;;16.60;99.90;15.60;103069.00;;;;5116424;28;20307;-72
2022/04/28 07:50:47;;;;;;;2.57;1.17;;;16.20;99.90;15.40;103067.00;;;;5115378;28;20236;-76
2022/04/28 07:53:15;;;;;;;0.35;0.35;;;15.80;99.90;15.30;103072.00;;;;5098751;28;20192;-74
2022/04/28 07:56:10;;;;;;;0.17;0.17;;;15.80;99.90;16.00;103072.00;;;;5116771;28;20267;-74
2022/04/28 07:58:40;;;;;;;0.20;0.20;;;15.80;99.90;15.80;103071.00;;;;5114152;28;20190;-72
2022/04/28 08:01:20;;;;;;;3.20;1.70;;;16.10;99.90;14.00;103053.00;;;;5114731;28;20262;-74
2022/04/28 08:03:52;;;;;;;0.53;0.53;;;14.80;99.90;14.70;103041.00;;;;5097462;28;20188;-73
2022/04/28 08:06:28;;;;;;;0.87;0.87;;;14.80;99.90;15.90;103081.00;;;;5115018;28;20240;-73
2022/04/28 08:08:59;;;;;;;4.50;2.67;;;15.60;99.90;15.30;103040.00;;;;5097926;28;20585;-72
2022/04/28 08:11:39;;;;;;;5.67;2.37;;;16.00;99.90;14.70;103072.00;;;;5097689;28;20696;-73
2022/04/28 08:14:07;;;;;;;3.00;2.70;;;15.20;99.90;14.70;103074.00;;;;5098505;28;20179;-67
2022/04/28 08:16:36;;;;;;;1.00;0.93;;;14.90;99.90;14.90;103075.00;;;;5114651;28;20660;-72
2022/04/28 08:19:03;;;;;;;1.77;1.63;;;15.10;99.90;15.10;103072.00;;;;5097569;28;20206;-68
2022/04/28 08:21:30;;;;;;;0.90;0.90;;;15.20;99.90;17.30;103061.00;;;;5114259;28;20204;-66
2022/04/28 08:23:57;;;;;;;0.83;0.83;;;16.40;99.90;17.30;103110.00;;;;5114636;28;20566;-74
2022/04/28 08:26:24;;;;;;;0.93;0.93;;;16.80;99.90;18.10;103113.00;;;;5096853;28;20183;-82
2022/04/28 08:28:52;;;;;;;0.80;0.80;;;17.60;99.90;16.10;103094.00;;;;5097473;28;20746;-81
2022/04/28 08:31:34;;;;;;;1.65;1.55;;;16.70;99.90;17.30;103065.00;;;;5097328;28;20282;-72
2022/04/28 08:34:02;;;;;;;2.87;1.30;;;17.30;99.90;15.30;103076.00;;;;5115928;28;20188;-83
2022/04/28 08:36:37;;;;;;;2.20;2.10;;;16.10;99.90;16.10;103007.00;;;;5114582;28;20218;-82
2022/04/28 08:39:14;;;;;;;2.03;1.33;;;15.90;99.90;16.70;103092.00;;;;5114270;28;20187;-82
2022/04/28 08:41:45;;;;;;;0.20;0.20;;;16.60;99.90;15.40;103031.00;;;;5113860;28;20261;-83
2022/04/28 08:44:22;;;;;;;1.17;1.07;;;16.10;99.90;16.60;103050.00;;;;5114107;28;20574;-81
2022/04/28 08:47:29;;;;;;;2.47;2.27;;;16.60;99.90;14.90;103078.00;;;;5096646;28;20180;-82
2022/04/28 08:49:55;;;;;;;0.20;0.20;;;16.30;99.90;17.00;103081.00;;;;5095639;28;20197;-80
2022/04/28 08:52:23;;;;;;;3.38;1.95;;;16.40;99.90;17.50;103026.00;;;;5114560;28;20708;-86
2022/04/28 08:54:50;;;;;;;1.80;1.50;;;17.40;99.90;16.20;103085.00;;;;5115536;28;20179;-84
2022/04/28 08:57:27;;;;;;;2.28;1.52;;;16.80;99.90;15.80;103078.00;;;;5096903;28;20264;-81
2022/04/28 08:59:55;;;;;;;0.57;0.50;;;16.30;99.90;17.10;103075.00;;;;5114020;28;20202;-85
2022/04/28 09:02:29;;;;;;;2.97;2.67;;;16.80;99.90;17.20;103066.00;;;;5096288;28;20265;-83
2022/04/28 09:05:06;;;;;;;0.47;0.47;;;17.40;99.90;17.50;103069.00;;;;5097428;28;20601;-85
2022/04/28 09:07:44;;;;;;;1.85;1.75;;;17.40;99.90;16.70;103077.00;;;;5115000;28;20163;-84
2022/04/28 09:10:38;;;;;;;3.30;2.28;;;17.30;99.90;16.20;103088.00;;;;5113211;28;20150;-84
2022/04/28 09:15:58;;;;;;;4.27;3.83;;;17.00;99.90;16.20;103037.00;;;;5114389;28;20225;-83
2022/04/28 09:18:25;;;;;;;2.57;2.13;;;16.70;99.90;15.90;103021.00;;;;5112722;28;20191;-83
2022/04/28 09:20:51;;;;;;;3.40;0.87;;;16.60;99.90;17.20;103049.00;;;;5114066;28;20571;-79
2022/04/28 09:23:20;;;;;;;4.75;1.65;;;17.10;99.90;18.10;103046.00;;;;5114641;28;20758;-79
2022/04/28 09:25:49;;;;;;;2.33;1.95;;;17.80;99.90;17.90;103074.00;;;;5113818;28;20181;-79
2022/04/28 09:28:17;;;;;;;2.53;1.33;;;18.20;99.90;16.40;102934.00;;;;5096264;28;20179;-77
2022/04/28 09:30:53;;;;;;;1.15;0.73;;;17.20;99.90;17.90;102951.00;;;;5113031;28;20251;-77
2022/04/28 09:33:22;;;;;;;1.48;1.17;;;17.60;99.90;17.00;102973.00;;;;5099279;28;20642;-77
2022/04/28 09:35:51;;;;;;;2.67;1.67;;;17.70;99.90;17.80;102989.00;;;;5094474;28;20263;-77
2022/04/28 09:38:21;;;;;;;1.53;1.43;;;17.70;99.90;16.40;103009.00;;;;5075645;28;20181;-78
2022/04/28 09:43:34;;;;;;;2.13;1.40;;;17.00;99.90;17.40;102984.00;;;;5092474;28;20661;-77
2022/04/28 09:46:01;;;;;;;2.40;1.40;;;17.60;99.90;18.30;102986.00;;;;5093146;28;20187;-77
2022/04/28 09:48:29;;;;;;;0.30;0.30;;;18.00;99.90;18.40;102981.00;;;;5075750;28;20198;-77
2022/04/28 09:51:13;;;;;;;2.30;1.77;;;18.50;99.90;18.90;102977.00;;;;5075894;28;20180;-77
2022/04/28 09:53:40;;;;;;;0.38;0.35;;;18.80;99.90;19.40;102970.00;;;;5092995;28;20274;-76
2022/04/28 09:56:14;;;;;;;2.00;1.85;;;19.00;99.90;17.70;102991.00;;;;5074817;28;20195;-80
2022/04/28 09:58:52;;;;;;;2.45;2.25;;;18.40;99.90;16.80;102971.00;;;;5093112;28;20182;-85
2022/04/28 10:01:34;;;;;;;3.07;1.33;;;17.90;99.90;17.00;102985.00;;;;5093148;28;20174;-82
2022/04/28 10:04:10;;;;;;;1.37;0.70;;;17.20;99.90;18.40;102974.00;;;;5110980;28;20688;-67
2022/04/28 10:06:38;;;;;;;1.95;1.45;;;17.90;99.90;18.20;102972.00;;;;5113658;28;20181;-81
2022/04/28 10:09:12;;;;;;;1.70;1.65;;;18.00;99.90;19.20;102964.00;;;;5112898;28;20542;-81
2022/04/28 10:11:42;;;;;;;1.98;0.80;;;18.60;99.90;19.50;102924.00;;;;5112647;28;20638;-80
2022/04/28 10:14:10;;;;;;;2.47;2.22;;;19.10;99.90;17.70;102961.00;;;;5112394;28;20202;-80
2022/04/28 10:16:43;;;;;;;1.80;0.47;;;18.70;99.90;18.90;102966.00;;;;5112730;28;20305;-81
2022/04/28 10:19:32;;;;;;;3.42;2.67;;;18.70;99.90;17.10;102965.00;;;;5112637;28;20284;-80
2022/04/28 10:33:23;;;;;;;0.10;0.10;;;18.60;99.90;18.40;102965.00;;;;5070215;28;20543;-84
2022/04/28 10:36:01;;;;;;;2.10;1.90;;;18.50;99.90;18.70;102966.00;;;;5050902;28;20247;-87
2022/04/28 10:38:34;;;;;;;1.38;0.80;;;18.80;99.90;18.40;102960.00;;;;5049594;28;20187;-85
2022/04/28 10:41:15;;;;;;;1.30;1.20;;;18.50;99.90;17.80;102961.00;;;;5033219;28;20216;-86
2022/04/28 10:43:46;;;;;;;1.13;1.00;;;18.40;99.90;18.20;102910.00;;;;5049412;28;20170;-87
2022/04/28 10:46:15;;;;;;;1.65;1.40;;;18.30;99.90;18.50;102890.00;;;;5032529;28;20190;-86
2022/04/28 10:48:47;;;;;;;3.35;1.77;;;18.80;99.90;17.90;102960.00;;;;5048748;28;20182;-82
2022/04/28 10:51:36;;;;;;;2.70;1.42;;;18.30;99.90;18.40;102950.00;;;;5049210;28;20318;-85
2022/04/28 10:54:23;;;;;;;0.25;0.25;;;18.50;99.90;20.40;102920.00;;;;5049470;28;20174;-85
2022/04/28 10:56:58;;;;;;;1.13;1.08;;;19.60;99.90;19.10;102940.00;;;;5048998;28;20178;-82
2022/04/28 10:59:28;;;;;;;2.50;1.63;;;19.80;99.90;20.50;102928.00;;;;5064968;28;20210;-86
2022/04/28 11:01:55;;;;;;;1.42;0.95;;;20.00;99.90;19.10;102946.00;;;;5048916;28;20214;-84
2022/04/28 11:04:32;;;;;;;1.95;1.67;;;19.80;99.90;20.10;102926.00;;;;5046646;28;20198;-84
2022/04/28 11:06:58;;;;;;;4.95;1.67;;;19.90;99.90;18.90;102944.00;;;;5032482;28;20725;-82
2022/04/28 11:09:33;;;;;;;5.55;1.05;;;19.40;99.90;19.70;102921.00;;;;5030979;28;20240;-83
2022/04/28 11:12:18;;;;;;;0.52;0.52;;;19.50;99.90;20.50;102903.00;;;;5049030;28;20308;-84
2022/04/28 11:15:03;;;;;;;1.50;1.30;;;20.20;99.90;20.50;102914.00;;;;5048566;28;20515;-84
2022/04/28 11:17:31;;;;;;;0.75;0.68;;;20.60;99.90;20.60;102917.00;;;;5031645;28;20174;-81
2022/04/28 11:20:09;;;;;;;0.70;0.52;;;20.90;99.90;20.40;102912.00;;;;5030983;28;20182;-83
2022/04/28 11:22:45;;;;;;;0.52;0.52;;;20.80;99.90;18.10;102947.00;;;;5065027;28;20182;-83
2022/04/28 11:25:17;;;;;;;3.00;2.17;;;19.00;99.90;18.20;102954.00;;;;5048754;28;20170;-82
2022/04/28 11:27:51;;;;;;;2.05;1.95;;;18.80;99.90;18.10;102938.00;;;;5032240;28;20534;-82
2022/04/28 11:30:21;;;;;;;2.50;2.10;;;18.80;99.90;18.40;102957.00;;;;5048088;28;20182;-84
2022/04/28 11:32:52;;;;;;;1.83;1.73;;;18.60;99.90;19.70;102934.00;;;;5047690;28;20244;-81
2022/04/28 11:35:35;;;;;;;2.63;2.33;;;19.20;99.90;19.80;102897.00;;;;5031536;28;20190;-83
2022/04/28 11:38:05;;;;;;;1.65;1.55;;;19.70;99.90;20.00;102919.00;;;;5031825;28;20196;-84
2022/04/28 11:40:34;;;;;;;2.10;2.00;;;20.20;99.90;20.10;102912.00;;;;5024913;28;20257;-82